createdAt,value
2019-01-14T00:02:07.194Z,986.88
2019-01-14T00:12:07.223Z,986.84
2019-01-14T00:22:07.181Z,986.88
2019-01-14T00:32:07.187Z,987.00
2019-01-14T00:42:07.285Z,987.17
2019-01-14T00:52:07.251Z,987.41
2019-01-14T01:02:07.111Z,987.35
2019-01-14T01:12:07.185Z,987.43
2019-01-14T01:22:07.157Z,987.69
2019-01-14T01:32:07.124Z,987.85
2019-01-14T01:42:07.079Z,988.11
2019-01-14T01:52:07.147Z,988.20
2019-01-14T02:02:07.154Z,988.27
2019-01-14T02:12:07.343Z,988.45
2019-01-14T02:22:07.112Z,988.51
2019-01-14T02:32:07.157Z,988.65
2019-01-14T02:42:07.062Z,988.60
2019-01-14T02:52:07.170Z,988.81
2019-01-14T03:02:07.141Z,988.95
2019-01-14T03:12:07.140Z,988.92
2019-01-14T03:22:07.163Z,989.02
2019-01-14T03:32:07.087Z,988.96
2019-01-14T03:42:07.326Z,989.17
2019-01-14T03:52:07.151Z,989.30
2019-01-14T04:02:07.091Z,989.43
2019-01-14T04:12:07.057Z,989.43
2019-01-14T04:22:07.125Z,989.46
2019-01-14T04:32:07.065Z,989.53
2019-01-14T04:42:07.143Z,989.52
2019-01-14T04:52:07.194Z,989.62
2019-01-14T05:02:07.072Z,989.74
2019-01-14T05:12:07.163Z,989.86
2019-01-14T05:22:07.149Z,989.89
2019-01-14T05:32:07.033Z,989.86
2019-01-14T05:42:07.147Z,990.01
2019-01-14T05:52:07.131Z,990.09
2019-01-14T06:02:07.083Z,989.99
2019-01-14T06:12:07.061Z,990.19
2019-01-14T06:22:07.471Z,990.32
2019-01-14T06:32:07.056Z,990.71
2019-01-14T06:42:07.635Z,990.74
2019-01-14T06:52:07.174Z,990.96
2019-01-14T07:02:07.039Z,991.12
2019-01-14T07:12:09.878Z,991.33
2019-01-14T07:22:07.637Z,991.37
2019-01-14T07:32:15.059Z,991.59
2019-01-14T07:42:07.300Z,991.43
2019-01-14T07:52:08.813Z,991.72
2019-01-14T08:02:07.123Z,991.84
2019-01-14T08:12:07.335Z,991.98
2019-01-14T08:22:07.043Z,992.05
2019-01-14T08:32:06.954Z,992.27
2019-01-14T08:42:07.374Z,992.54
2019-01-14T08:52:07.258Z,992.63
2019-01-14T09:02:07.232Z,992.69
2019-01-14T09:12:07.157Z,992.82
2019-01-14T09:22:07.139Z,993.07
2019-01-14T09:32:07.171Z,993.20
2019-01-14T09:42:07.495Z,993.35
2019-01-14T09:52:07.097Z,993.33
2019-01-14T10:02:07.636Z,993.57
2019-01-14T10:12:07.060Z,993.83
2019-01-14T10:22:07.076Z,994.09
2019-01-14T10:32:07.044Z,994.04
2019-01-14T10:42:07.138Z,994.30
2019-01-14T10:52:07.065Z,994.33
2019-01-14T11:02:07.026Z,994.44
2019-01-14T11:12:07.440Z,994.49
2019-01-14T11:22:06.979Z,994.55
2019-01-14T11:32:07.035Z,994.71
2019-01-14T11:42:07.258Z,994.76
2019-01-14T11:52:07.189Z,994.88
2019-01-14T12:02:07.040Z,994.86
2019-01-14T12:12:07.097Z,994.98
2019-01-14T12:22:07.059Z,995.31
2019-01-14T12:32:07.082Z,995.43
2019-01-14T12:42:07.844Z,995.57
2019-01-14T12:52:07.104Z,995.59
2019-01-14T13:02:07.001Z,995.63
2019-01-14T13:12:07.417Z,995.65
2019-01-14T13:22:07.090Z,995.68
2019-01-14T13:32:07.010Z,995.81
2019-01-14T13:42:07.390Z,995.94
2019-01-14T13:52:07.087Z,996.10
2019-01-14T14:02:07.106Z,996.17
2019-01-14T14:12:07.460Z,996.32
2019-01-14T14:22:11.700Z,996.41
2019-01-14T14:32:07.080Z,996.89
2019-01-14T14:42:07.588Z,997.15
2019-01-14T14:52:07.144Z,997.26
2019-01-14T15:02:07.095Z,997.23
2019-01-14T15:12:07.353Z,997.44
2019-01-14T15:22:07.066Z,997.67
2019-01-14T15:32:06.999Z,997.73
2019-01-14T15:42:07.476Z,997.89
2019-01-14T15:52:07.025Z,998.05
2019-01-14T16:02:06.986Z,998.15
2019-01-14T16:12:07.346Z,998.22
2019-01-14T16:22:07.158Z,998.39
2019-01-14T16:32:09.021Z,998.53
2019-01-14T16:42:07.060Z,998.64
2019-01-14T16:52:07.085Z,998.85
2019-01-14T17:02:07.068Z,998.81
2019-01-14T17:12:07.437Z,998.77
2019-01-14T17:22:06.915Z,998.94
2019-01-14T17:32:07.038Z,999.05
2019-01-14T17:42:07.034Z,999.25
2019-01-14T17:52:07.730Z,999.47
2019-01-14T18:02:07.092Z,999.39
2019-01-14T18:12:07.001Z,999.36
2019-01-14T18:22:07.384Z,999.48
2019-01-14T18:32:06.984Z,999.65
2019-01-14T18:42:08.119Z,999.63
2019-01-14T18:52:06.840Z,999.87
2019-01-14T19:02:08.089Z,1000.00
2019-01-14T19:12:07.035Z,1000.07
2019-01-14T19:22:06.955Z,1000.11
2019-01-14T19:32:06.961Z,1000.29
2019-01-14T19:42:06.925Z,1000.37
2019-01-14T19:52:07.024Z,1000.32
2019-01-14T20:02:07.130Z,1000.38
2019-01-14T20:12:06.949Z,1000.40
2019-01-14T20:22:06.971Z,1000.45
2019-01-14T20:32:06.941Z,1000.46
2019-01-14T20:42:07.419Z,1000.47
2019-01-14T20:52:06.968Z,1000.39
2019-01-14T21:02:06.998Z,1000.48
2019-01-14T21:12:07.017Z,1000.44
2019-01-14T21:22:06.919Z,1000.38
2019-01-14T21:32:07.100Z,1000.44
2019-01-14T21:42:07.133Z,1000.50
2019-01-14T21:52:06.905Z,1000.56
2019-01-14T22:02:06.932Z,1000.60
2019-01-14T22:12:06.878Z,1000.59
2019-01-14T22:22:06.903Z,1000.69
2019-01-14T22:32:07.933Z,1000.74
2019-01-14T22:42:07.454Z,1000.80
2019-01-14T22:52:06.941Z,1000.72
2019-01-14T23:02:06.911Z,1000.67
2019-01-14T23:12:06.910Z,1000.70
2019-01-14T23:22:08.001Z,1000.78
2019-01-14T23:32:06.928Z,1000.76
2019-01-14T23:42:06.910Z,1000.73
2019-01-14T23:52:06.957Z,1000.87
